Gilmore, AR (72339)

3:34 PM CDT on July 05, 2015 (GMT -0500)
West Memphis Municipal | | Change Station
CLOSE
Current Station
Airport
Location: West Memphis,
Elevation: 213 ft
Nearby Weather Stations
Active Advisory: Flood Advisory

Elev 213 ft 35.14 °N, 90.23 °W | Updated 41 minutes ago

Overcast
Overcast
80 °F
Feels Like 84 °F
N
7
Wind Variable Wind from SSW

Today
High -- | Low -- °F
--% Chance of Precip.
Yesterday
High -- | Low -- °F
Precip. -- in
5:51 AM 8:19 PM
Waning Gibbous, 82% visible
Pressure 30.05 in
Visibility 10.0 miles
Clouds Overcast 4300 ft
Heat Index 84 °F
Dew Point 72 °F
Humidity 76%
Rainfall 0.00 in
Snow Depth Not available.
UV 3 out of 12
Pollen 2.60 out of 12
Air Quality Not available.
Flu Activity Not available.
METAR KAWM 051953Z AUTO 20006KT 10SM OVC043 27/22 A3006 RMK AO2 SLP176 T02670222 $

More Conditions Fewer Conditions

Pressure 30.05 in
Visibility 10.0 miles
Clouds Overcast 4300 ft
Heat Index 84 °F
Dew Point 72 °F
Humidity 76%
Rainfall 0.00 in
Snow Depth Not available.
UV 3 out of 12
Pollen 2.60 out of 12
Air Quality Not available.
Flu Activity Not available.
METAR KAWM 051953Z AUTO 20006KT 10SM OVC043 27/22 A3006 RMK AO2 SLP176 T02670222 $

More Conditions Fewer Conditions

10-Day Weather Forecast

×

Almanac

Astronomy

Jul. 05, 2015 Rise Set
Actual Time
Civil Twilight
Nautical Twilight
Astronomical Twilight
Moon
Length of Visible Light
Length of Day
Tomorrow will be .
, % of the Moon is Illuminated

Today's Extremes

State Highs State Lows

Community

WunderPhotos

Upload Photos

1,835,379 photos uploaded!

WunderBlogs® & News

Nearby

Air Quality

  Air Quality AQ Index Pollutant
Not available.

Snow Depth

Station Depth Elevation

Earthquake Activity

City Distance Mag. Time & Date
Minimum magnitude displayed is 2.5.

Coastal Water Temperatures

Place Temperature

Stations

Nearby Weather Stations

Station Location Temp. Windchill Dew Point Humidity Wind Precip. Elev Updated Type
                   
Flood Advisory
Statement as of 11:39 AM CDT on July 05, 2015

The Flood Advisory continues for
the Mississippi River at Memphis
* until Friday July 10.
* At 11 am Sunday the stage was 30.1 feet.
* Flood stage is 34.0 feet.
* Forecast... the river will rise to near 32.0 feet Saturday July 11.
* At 32.0 feet... in Arkansas, the Road to the dwelling on south end
of island 40 chute is flooding. The levee near Danner Lake has
water on it. Water is up to most of the levee west of island 40
chute and on south to I-55. Most all land between Memphis and West
Memphis is covered by water.


Lat... Lon 3539 9025 3539 8995 3533 9005 3513 9004
      3491 9008 3491 9041